Time;durP1;ratioP1;P1;durP2;ratioP2;P2;SDS_P1;SDS_P2;PMS_P1;PMS_P2;Temp;Humidity;BMP_temperature;BMP_pressure;BME280_temperature;BME280_humidity;BME280_pressure;Samples;Min_cycle;Max_cycle;Signal;HPM_P1;HPM_P2
2022/10/17 00:00:32;;;;;;;9.52;5.60;;;;;;;20.43;55.09;101677.00;5085154;28;20375;-40
2022/10/17 00:02:59;;;;;;;7.63;5.10;;;;;;;20.42;55.09;101667.22;5084898;28;20044;-39
2022/10/17 00:05:25;;;;;;;8.57;5.38;;;;;;;20.41;54.67;101662.81;5084996;28;20458;-39
2022/10/17 00:07:52;;;;;;;9.27;4.88;;;;;;;20.41;55.15;101670.06;5084239;28;20048;-39
2022/10/17 00:10:19;;;;;;;8.18;5.25;;;;;;;20.40;55.41;101655.75;5087164;28;20308;-39
2022/10/17 00:12:46;;;;;;;8.25;4.95;;;;;;;20.40;55.12;101657.59;5084734;28;20484;-40
2022/10/17 00:15:16;;;;;;;7.75;5.18;;;;;;;20.39;55.01;101659.44;5090155;28;20336;-40
2022/10/17 00:17:42;;;;;;;8.20;5.32;;;;;;;20.39;55.01;101658.59;5083824;28;20047;-40
2022/10/17 00:20:09;;;;;;;6.72;4.50;;;;;;;20.37;55.05;101657.88;5086466;28;20067;-39
2022/10/17 00:22:36;;;;;;;6.97;4.70;;;;;;;20.37;55.22;101660.56;5085550;28;20055;-39
2022/10/17 00:25:03;;;;;;;8.52;4.90;;;;;;;20.37;55.47;101663.25;5083261;28;20047;-39
2022/10/17 00:27:29;;;;;;;7.53;4.90;;;;;;;20.36;55.44;101661.59;5087791;28;20074;-39
2022/10/17 00:29:56;;;;;;;7.18;4.75;;;;;;;20.36;54.85;101661.59;5084743;28;20048;-40
2022/10/17 00:32:22;;;;;;;8.98;4.63;;;;;;;20.36;54.63;101653.50;5087906;28;20428;-39
2022/10/17 00:34:49;;;;;;;7.47;5.03;;;;;;;20.35;55.46;101652.66;5085820;28;20567;-39
2022/10/17 00:37:15;;;;;;;7.78;4.45;;;;;;;20.35;54.79;101658.03;5087880;28;20048;-39
2022/10/17 00:39:42;;;;;;;7.45;4.20;;;;;;;20.34;55.48;101648.28;5081729;28;20430;-39
2022/10/17 00:42:11;;;;;;;5.82;4.00;;;;;;;20.34;55.21;101652.78;5068500;28;20058;-39
2022/10/17 00:44:41;;;;;;;7.88;4.85;;;;;;;20.33;54.92;101656.47;5082748;28;20051;-39
2022/10/17 00:47:12;;;;;;;6.78;4.43;;;;;;;20.34;55.28;101653.66;5086255;28;20328;-39
2022/10/17 00:49:39;;;;;;;6.68;4.32;;;;;;;20.33;55.39;101656.47;5084981;28;20048;-39
2022/10/17 00:52:12;;;;;;;6.85;4.25;;;;;;;20.32;55.18;101654.81;5086347;28;20052;-39
2022/10/17 00:54:43;;;;;;;7.85;4.53;;;;;;;20.30;55.29;101646.88;5086559;28;20102;-39
2022/10/17 00:57:10;;;;;;;6.93;4.68;;;;;;;20.31;55.48;101655.81;5089066;28;20048;-39
2022/10/17 00:59:40;;;;;;;7.07;4.50;;;;;;;20.31;55.08;101650.41;5086467;28;20098;-40
2022/10/17 01:02:16;;;;;;;5.38;3.97;;;;;;;20.30;54.79;101644.19;5084586;28;20340;-40
2022/10/17 01:04:45;;;;;;;6.45;4.13;;;;;;;20.29;54.86;101636.25;5085657;28;20047;-40
2022/10/17 01:07:12;;;;;;;6.10;3.97;;;;;;;20.29;55.23;101639.78;5081894;28;20055;-40
2022/10/17 01:09:40;;;;;;;7.53;4.57;;;;;;;20.28;55.12;101638.09;5086453;28;20063;-40
2022/10/17 01:12:17;;;;;;;7.50;4.32;;;;;;;20.29;54.94;101642.47;5082770;28;20050;-40
2022/10/17 01:15:10;;;;;;;6.32;4.35;;;;;;;20.27;55.24;101631.03;5080139;28;20500;-40
2022/10/17 01:17:51;;;;;;;7.30;4.53;;;;;;;20.28;54.74;101621.09;5084994;28;20052;-40
2022/10/17 01:20:33;;;;;;;7.70;4.15;;;;;;;20.27;54.79;101624.78;5083264;28;20427;-40
2022/10/17 01:23:27;;;;;;;5.80;3.88;;;;;;;20.25;55.75;101622.22;5084885;28;20048;-40
2022/10/17 01:26:19;;;;;;;6.85;4.45;;;;;;;20.27;55.57;101627.47;5082586;28;20047;-40
2022/10/17 01:29:14;;;;;;;5.80;3.97;;;;;;;20.25;55.39;101624.06;5088454;28;20434;-40
2022/10/17 01:31:48;;;;;;;6.15;4.05;;;;;;;20.24;55.09;101628.63;5076987;28;20051;-40
2022/10/17 01:34:19;;;;;;;6.07;3.78;;;;;;;20.24;54.98;101627.78;5091921;28;20040;-40
2022/10/17 01:36:55;;;;;;;6.30;4.35;;;;;;;20.24;55.36;101627.78;5088385;28;20053;-40
2022/10/17 01:39:43;;;;;;;5.82;4.05;;;;;;;20.23;55.50;101628.78;5088973;28;20308;-40
2022/10/17 01:42:22;;;;;;;5.22;3.25;;;;;;;20.21;55.59;101616.28;5087874;28;20117;-40
2022/10/17 01:44:57;;;;;;;6.10;3.95;;;;;;;20.20;55.34;101617.31;5088813;28;20052;-40
2022/10/17 01:47:28;;;;;;;8.38;4.30;;;;;;;20.20;55.57;101600.31;5087504;28;20376;-40
2022/10/17 01:50:01;;;;;;;6.00;3.90;;;;;;;20.20;55.20;101593.06;5084903;28;20411;-40
2022/10/17 01:52:45;;;;;;;5.20;3.65;;;;;;;20.19;55.50;101583.31;5087573;28;20111;-39
2022/10/17 01:55:21;;;;;;;;;;;;;;;20.18;55.54;101569.97;5089685;28;20052;-40
2022/10/17 01:57:56;;;;;;;6.80;4.03;;;;;;;20.21;55.31;101570.53;5088462;28;19928;-40
2022/10/17 02:00:25;;;;;;;6.30;3.45;;;;;;;20.20;55.46;101582.31;5088135;28;20362;-40
2022/10/17 02:02:57;;;;;;;5.63;3.55;;;;;;;20.19;55.06;101580.63;5088824;28;20383;-40
2022/10/17 02:05:29;;;;;;;5.10;3.45;;;;;;;20.19;54.98;101574.38;5088024;28;20055;-40
2022/10/17 02:07:56;;;;;;;4.82;3.20;;;;;;;20.18;55.43;101570.84;5088570;28;20052;-40
2022/10/17 02:10:36;;;;;;;6.10;4.20;;;;;;;20.17;55.49;101573.69;5089165;28;20105;-40
2022/10/17 02:13:18;;;;;;;6.97;3.60;;;;;;;20.17;55.34;101573.69;5089440;28;20389;-40
2022/10/17 02:16:04;;;;;;;4.88;3.63;;;;;;;20.17;55.15;101576.38;5088481;28;20281;-40
2022/10/17 02:19:22;;;;;;;4.30;2.95;;;;;;;20.14;55.28;101564.06;5087349;28;20074;-39
2022/10/17 02:22:06;;;;;;;5.22;3.50;;;;;;;20.16;55.89;101563.91;5060841;28;20056;-40
2022/10/17 02:25:02;;;;;;;6.28;3.20;;;;;;;20.15;55.21;101564.91;5087509;28;20044;-40
2022/10/17 02:27:49;;;;;;;5.32;3.40;;;;;;;20.13;55.66;101559.66;5087483;28;20052;-40
2022/10/17 02:30:53;;;;;;;6.07;3.80;;;;;;;20.14;55.97;101547.06;5086143;28;20389;-40
2022/10/17 02:33:30;;;;;;;5.07;3.05;;;;;;;20.14;55.76;101547.06;5087666;28;20361;-40
2022/10/17 02:36:03;;;;;;;4.10;2.97;;;;;;;20.13;54.96;101538.13;5091392;28;20105;-40
2022/10/17 02:38:31;;;;;;;7.75;3.80;;;;;;;20.13;55.14;101545.38;5088255;28;20090;-40
2022/10/17 02:40:58;;;;;;;5.07;3.50;;;;;;;20.13;55.24;101538.13;5092682;28;20051;-40
2022/10/17 02:43:25;;;;;;;4.93;3.50;;;;;;;20.13;55.75;101551.59;5086750;28;20040;-40
2022/10/17 02:45:51;;;;;;;4.10;3.00;;;;;;;20.12;55.80;101551.75;5089694;28;20056;-40
2022/10/17 02:48:24;;;;;;;4.80;3.47;;;;;;;20.11;55.36;101550.91;5089633;28;20109;-39
2022/10/17 02:51:16;;;;;;;4.57;2.95;;;;;;;20.09;55.80;101547.50;5087562;28;20048;-40
2022/10/17 02:53:54;;;;;;;4.30;3.28;;;;;;;20.11;55.23;101550.91;5073257;28;20377;-40
2022/10/17 02:56:21;;;;;;;4.57;3.20;;;;;;;20.09;55.90;101558.28;5085368;28;20102;-40
2022/10/17 02:58:53;;;;;;;4.65;3.10;;;;;;;20.09;56.06;101554.75;5086451;28;20202;-40
2022/10/17 03:01:20;;;;;;;5.57;3.58;;;;;;;20.09;55.73;101552.91;5087351;28;20064;-40
2022/10/17 03:03:47;;;;;;;5.03;2.88;;;;;;;20.10;55.86;101556.44;5086725;28;20036;-40
2022/10/17 03:06:14;;;;;;;4.32;2.92;;;;;;;20.08;55.18;101548.50;5086166;28;20056;-40
2022/10/17 03:08:40;;;;;;;4.60;3.25;;;;;;;20.07;55.45;101551.38;5085720;28;20048;-40
2022/10/17 03:11:07;;;;;;;4.55;2.80;;;;;;;20.08;55.68;101553.91;5088141;28;20052;-40
2022/10/17 03:13:34;;;;;;;5.35;2.83;;;;;;;20.09;55.54;101565.50;5085426;28;20052;-40
2022/10/17 03:16:05;;;;;;;4.38;2.70;;;;;;;20.07;55.48;101557.59;5087651;28;20175;-40
2022/10/17 03:18:31;;;;;;;4.32;3.28;;;;;;;20.09;55.64;101562.81;5086158;28;20055;-40
2022/10/17 03:20:58;;;;;;;4.97;3.13;;;;;;;20.08;55.62;101563.81;5084463;28;20052;-40
2022/10/17 03:23:24;;;;;;;5.95;2.97;;;;;;;20.07;55.31;101571.06;5090582;28;20040;-40
2022/10/17 03:25:51;;;;;;;3.85;2.80;;;;;;;20.06;55.91;101563.97;5087648;28;20055;-40
2022/10/17 03:28:17;;;;;;;5.57;3.10;;;;;;;20.07;56.11;101568.34;5086358;28;20405;-39
2022/10/17 03:30:44;;;;;;;4.70;3.33;;;;;;;20.06;55.71;101574.75;5086811;28;20044;-40
2022/10/17 03:33:10;;;;;;;4.47;2.80;;;;;;;20.07;56.15;101573.75;5088507;28;20047;-40
2022/10/17 03:35:39;;;;;;;3.60;2.70;;;;;;;20.08;56.26;101574.59;5086266;28;20051;-40
2022/10/17 03:38:05;;;;;;;4.93;3.20;;;;;;;20.07;55.99;101575.59;5086371;28;20056;-40
2022/10/17 03:40:32;;;;;;;4.95;2.72;;;;;;;20.07;55.66;101573.75;5084467;28;20051;-40
2022/10/17 03:42:58;;;;;;;4.68;3.03;;;;;;;20.07;55.89;101568.34;5087220;28;20044;-40
2022/10/17 03:45:25;;;;;;;3.42;2.38;;;;;;;20.07;55.90;101576.44;5086568;28;21629;-40
2022/10/17 03:47:51;;;;;;;3.67;2.38;;;;;;;20.07;55.68;101576.44;5087468;28;20040;-40
2022/10/17 03:50:18;;;;;;;4.30;2.80;;;;;;;20.07;55.94;101579.13;5083096;28;20051;-40
2022/10/17 03:52:48;;;;;;;4.50;2.67;;;;;;;20.07;56.17;101573.75;5085395;28;20052;-40
2022/10/17 03:55:15;;;;;;;3.72;2.78;;;;;;;20.07;55.67;101568.34;5079274;28;20075;-39
2022/10/17 03:57:42;;;;;;;4.63;2.80;;;;;;;20.06;55.82;101563.09;5084812;28;20044;-40
2022/10/17 04:00:11;;;;;;;3.53;2.65;;;;;;;20.06;56.23;101561.28;5082990;28;20043;-40
2022/10/17 04:02:38;;;;;;;4.78;2.80;;;;;;;20.06;55.64;101572.06;5084457;28;20056;-40
2022/10/17 04:05:05;;;;;;;4.07;2.78;;;;;;;20.05;55.50;101564.94;5084186;28;20113;-40
2022/10/17 04:07:31;;;;;;;6.00;3.35;;;;;;;20.06;55.69;101569.38;5084433;28;20055;-40
2022/10/17 04:09:58;;;;;;;3.97;2.85;;;;;;;20.05;56.32;101570.34;5074197;28;20055;-41
2022/10/17 04:12:24;;;;;;;3.60;2.30;;;;;;;20.05;56.21;101570.34;5084724;28;20044;-40
2022/10/17 04:14:50;;;;;;;3.63;2.70;;;;;;;20.05;55.57;101578.41;5084978;28;20487;-40
2022/10/17 04:17:17;;;;;;;4.63;2.45;;;;;;;20.05;56.43;101591.03;5083298;28;20048;-40
2022/10/17 04:19:43;;;;;;;6.40;2.63;;;;;;;20.04;55.99;101584.78;5083873;28;20098;-40
2022/10/17 04:22:10;;;;;;;4.22;2.88;;;;;;;20.04;55.96;101574.03;5079683;28;20063;-40
2022/10/17 04:24:36;;;;;;;4.78;2.83;;;;;;;20.05;55.55;101580.25;5079100;28;20102;-40
2022/10/17 04:27:03;;;;;;;3.47;2.40;;;;;;;20.05;56.10;101581.09;5083293;28;20059;-40
2022/10/17 04:29:29;;;;;;;3.67;2.63;;;;;;;20.04;55.64;101579.41;5084000;28;20101;-40
2022/10/17 04:31:56;;;;;;;6.63;2.97;;;;;;;20.04;56.04;101597.41;5082474;28;20127;-40
2022/10/17 04:34:23;;;;;;;3.70;2.60;;;;;;;20.05;56.52;101591.03;5086335;28;20410;-40
2022/10/17 04:36:50;;;;;;;4.38;2.90;;;;;;;20.04;56.52;101594.72;5084168;28;20079;-40
2022/10/17 04:39:17;;;;;;;4.35;2.63;;;;;;;20.04;56.00;101592.88;5084471;28;20048;-40
2022/10/17 04:41:44;;;;;;;3.67;2.70;;;;;;;20.03;55.76;101593.88;5082114;28;20044;-40
2022/10/17 04:44:10;;;;;;;7.07;3.13;;;;;;;20.04;55.69;101598.25;5082591;28;20327;-40
2022/10/17 04:46:37;;;;;;;5.68;2.67;;;;;;;20.03;56.29;101593.88;5084067;28;20052;-40
2022/10/17 04:49:03;;;;;;;4.38;2.80;;;;;;;20.04;56.36;101600.09;5080451;28;20057;-40
2022/10/17 04:51:30;;;;;;;4.90;2.25;;;;;;;20.03;56.01;101601.94;5078143;28;20055;-40
2022/10/17 04:53:56;;;;;;;4.82;2.90;;;;;;;20.04;55.83;101603.63;5084322;28;20048;-40
2022/10/17 04:56:24;;;;;;;5.72;2.92;;;;;;;20.03;55.68;101611.88;5082526;28;20055;-40
2022/10/17 04:58:51;;;;;;;3.03;2.33;;;;;;;20.05;55.86;101615.25;5082444;28;20056;-40
2022/10/17 05:01:21;;;;;;;5.10;3.10;;;;;;;20.04;56.27;101617.09;5078568;28;20063;-40
2022/10/17 05:03:48;;;;;;;4.03;2.38;;;;;;;20.03;56.19;101615.41;5086435;28;20055;-40
2022/10/17 05:06:20;;;;;;;3.22;2.55;;;;;;;20.03;56.45;101618.09;5084185;28;20041;-40
2022/10/17 05:08:47;;;;;;;3.90;2.45;;;;;;;20.03;55.92;101614.56;5092044;28;20055;-40
2022/10/17 05:11:17;;;;;;;3.97;2.72;;;;;;;20.02;55.82;101616.41;5088729;28;20055;-40
2022/10/17 05:13:43;;;;;;;3.42;2.70;;;;;;;20.03;56.29;101609.19;5087881;28;20048;-40
2022/10/17 05:16:10;;;;;;;3.20;2.45;;;;;;;20.02;56.05;101611.03;5089284;28;20576;-39
2022/10/17 05:18:36;;;;;;;8.52;2.72;;;;;;;20.02;56.06;101608.34;5087390;28;20348;-40
2022/10/17 05:21:03;;;;;;;3.33;2.30;;;;;;;20.02;55.62;101602.94;5084177;28;20090;-40
2022/10/17 05:23:30;;;;;;;5.80;2.80;;;;;;;20.03;55.86;101610.03;5086836;28;20339;-40
2022/10/17 05:25:56;;;;;;;4.93;2.58;;;;;;;20.03;56.29;101619.94;5083481;28;20047;-40
2022/10/17 05:28:23;;;;;;;5.68;2.90;;;;;;;20.03;56.61;101630.72;5087545;28;20052;-39
2022/10/17 05:30:49;;;;;;;4.35;2.85;;;;;;;20.03;56.31;101628.00;5086300;28;20048;-39
2022/10/17 05:33:16;;;;;;;6.43;3.15;;;;;;;20.03;56.34;101636.94;5084894;28;20048;-40
2022/10/17 05:35:42;;;;;;;3.67;2.58;;;;;;;20.03;56.47;101642.31;5087282;28;20041;-40
2022/10/17 05:38:09;;;;;;;4.70;3.05;;;;;;;20.03;56.40;101639.63;5084346;28;20093;-39
2022/10/17 05:40:37;;;;;;;6.35;3.22;;;;;;;20.02;56.73;101627.16;5082893;28;20044;-40
2022/10/17 05:43:04;;;;;;;3.60;2.83;;;;;;;20.03;56.24;101636.09;5085893;28;20516;-40
2022/10/17 05:45:30;;;;;;;4.95;3.28;;;;;;;20.03;56.13;101628.00;5087363;28;20047;-40
2022/10/17 05:47:57;;;;;;;4.07;3.13;;;;;;;20.01;56.04;101620.06;5087169;28;20052;-40
2022/10/17 05:50:24;;;;;;;4.32;2.80;;;;;;;20.01;56.69;101614.69;5084538;28;20060;-40
2022/10/17 05:52:54;;;;;;;4.20;2.65;;;;;;;20.01;56.59;101620.06;5089320;28;20043;-40
2022/10/17 05:55:21;;;;;;;6.38;3.35;;;;;;;20.01;56.69;101617.38;5082392;28;20066;-40
2022/10/17 05:57:48;;;;;;;5.78;2.85;;;;;;;20.02;56.39;101612.84;5088102;28;20434;-40
2022/10/17 06:00:14;;;;;;;5.90;3.50;;;;;;;20.02;56.49;101627.16;5087433;28;20040;-40
2022/10/17 06:02:44;;;;;;;5.00;2.90;;;;;;;20.02;56.17;101634.38;5084309;28;20043;-40
2022/10/17 06:05:13;;;;;;;4.63;2.90;;;;;;;20.02;56.38;101634.38;5083612;28;20044;-40
2022/10/17 06:07:39;;;;;;;3.85;2.55;;;;;;;20.02;56.46;101629.84;5081903;28;20051;-40
2022/10/17 06:10:06;;;;;;;4.30;2.58;;;;;;;20.02;56.05;101634.38;5079861;28;20347;-40
2022/10/17 06:12:33;;;;;;;4.47;3.30;;;;;;;20.02;56.10;101634.38;5082135;28;20040;-40
2022/10/17 06:14:59;;;;;;;8.50;3.10;;;;;;;20.02;56.40;101629.00;5083267;28;20040;-40
2022/10/17 06:17:27;;;;;;;4.22;2.83;;;;;;;20.01;56.17;101636.22;5083603;28;20043;-40
2022/10/17 06:19:54;;;;;;;4.32;3.03;;;;;;;20.01;56.30;101638.91;5086925;28;20055;-40
2022/10/17 06:22:20;;;;;;;5.60;2.92;;;;;;;20.00;56.52;101647.97;5087067;28;20082;-40
2022/10/17 06:24:47;;;;;;;6.68;3.00;;;;;;;20.01;56.37;101638.91;5084167;28;20451;-40
2022/10/17 06:27:13;;;;;;;5.90;3.10;;;;;;;20.01;56.56;101654.22;5087086;28;20075;-40
2022/10/17 06:29:40;;;;;;;5.00;3.00;;;;;;;20.01;56.68;101652.34;5090323;28;20058;-40
2022/10/17 06:32:06;;;;;;;4.95;2.88;;;;;;;20.00;56.62;101647.97;5081427;28;20056;-40
2022/10/17 06:34:38;;;;;;;5.90;2.95;;;;;;;20.02;56.21;101650.50;5088175;28;20105;-40
2022/10/17 06:37:04;;;;;;;4.28;2.65;;;;;;;20.01;56.62;101667.66;5085161;28;20374;-40
2022/10/17 06:39:32;;;;;;;4.30;2.70;;;;;;;20.01;56.59;101676.56;5082305;28;20047;-40
2022/10/17 06:42:00;;;;;;;5.10;3.00;;;;;;;20.02;56.09;101681.00;5084291;28;20047;-40
2022/10/17 06:44:30;;;;;;;4.88;3.30;;;;;;;20.02;56.60;101691.75;5083754;28;20344;-40
2022/10/17 06:46:59;;;;;;;4.28;3.05;;;;;;;20.03;56.21;101692.59;5088400;28;20048;-40
2022/10/17 06:49:26;;;;;;;4.75;2.65;;;;;;;20.03;56.38;101692.59;5085852;28;20536;-40
2022/10/17 06:51:53;;;;;;;4.55;2.92;;;;;;;20.02;56.14;101699.81;5084019;28;20074;-40
2022/10/17 06:54:20;;;;;;;3.47;2.50;;;;;;;20.02;56.18;101704.34;5080228;28;20044;-40
2022/10/17 06:56:46;;;;;;;7.30;2.97;;;;;;;20.02;56.31;101715.97;5082921;28;20062;-40
2022/10/17 06:59:14;;;;;;;3.75;2.75;;;;;;;20.02;56.52;101720.47;5088892;28;20044;-40
2022/10/17 07:01:41;;;;;;;4.28;3.30;;;;;;;20.02;55.90;101718.66;5082522;28;20044;-40
2022/10/17 07:04:12;;;;;;;5.78;2.78;;;;;;;20.03;56.34;101703.38;5086177;28;20036;-40
2022/10/17 07:06:39;;;;;;;4.85;3.00;;;;;;;20.02;56.06;101715.97;5081989;28;20044;-40
2022/10/17 07:09:05;;;;;;;5.75;3.13;;;;;;;20.03;56.04;101706.91;5081940;28;20059;-40
2022/10/17 07:11:33;;;;;;;5.78;2.80;;;;;;;20.03;56.46;101708.75;5081452;28;20049;-40
2022/10/17 07:14:01;;;;;;;5.63;2.95;;;;;;;20.03;56.24;101716.81;5082759;28;20049;-40
2022/10/17 07:16:28;;;;;;;4.43;2.95;;;;;;;20.03;56.31;101717.66;5083808;28;20041;-40
2022/10/17 07:18:54;;;;;;;5.00;3.17;;;;;;;20.03;56.24;101731.13;5084543;28;20052;-40
2022/10/17 07:21:21;;;;;;;6.95;3.15;;;;;;;20.03;55.78;101727.59;5082373;28;20071;-40
2022/10/17 07:23:48;;;;;;;5.18;2.92;;;;;;;20.02;56.22;101715.97;5082282;28;20063;-40
2022/10/17 07:26:16;;;;;;;5.63;2.88;;;;;;;20.04;55.85;101723.88;5080188;28;20102;-40
2022/10/17 07:28:44;;;;;;;4.53;3.22;;;;;;;20.03;56.63;101728.44;5080036;28;20109;-40
2022/10/17 07:31:17;;;;;;;4.43;2.83;;;;;;;20.03;56.55;101752.66;5081976;28;20073;-40
2022/10/17 07:33:44;;;;;;;5.18;3.08;;;;;;;20.03;56.14;101774.19;5087535;28;20052;-40
2022/10/17 07:36:12;;;;;;;5.10;3.20;;;;;;;20.04;56.22;101769.63;5085352;28;20049;-40
2022/10/17 07:38:38;;;;;;;6.25;3.03;;;;;;;20.04;56.31;101769.63;5083133;28;20067;-40
2022/10/17 07:41:07;;;;;;;4.85;3.10;;;;;;;20.04;56.26;101778.56;5084637;28;20579;-40
2022/10/17 07:43:35;;;;;;;4.82;2.90;;;;;;;20.04;56.45;101791.16;5083088;28;20059;-40
2022/10/17 07:46:03;;;;;;;4.97;3.03;;;;;;;20.04;56.63;101799.25;5084106;28;20141;-40
2022/10/17 07:48:30;;;;;;;3.88;2.72;;;;;;;20.05;56.22;101827.84;5085346;28;20056;-40
2022/10/17 07:50:56;;;;;;;5.05;2.38;;;;;;;20.05;55.82;101835.91;5078377;28;20106;-40
2022/10/17 07:53:23;;;;;;;4.30;2.80;;;;;;;20.06;56.07;101843.00;5080396;28;20130;-40
2022/10/17 07:55:50;;;;;;;3.85;2.88;;;;;;;20.04;56.13;101851.22;5078123;28;20036;-40
2022/10/17 07:58:17;;;;;;;3.80;2.83;;;;;;;20.05;56.41;101871.75;5083118;28;20063;-40
2022/10/17 08:00:47;;;;;;;5.00;3.55;;;;;;;20.05;56.19;101882.53;5082876;28;20058;-40
2022/10/17 08:03:14;;;;;;;5.60;3.30;;;;;;;20.04;57.12;101899.66;5085302;28;20056;-40
2022/10/17 08:05:40;;;;;;;4.75;3.10;;;;;;;20.05;56.80;101903.19;5081579;28;20039;-40
2022/10/17 08:08:07;;;;;;;5.22;2.72;;;;;;;20.05;56.93;101905.91;5081487;28;20043;-40
2022/10/17 08:10:33;;;;;;;9.35;2.97;;;;;;;20.04;56.59;101913.13;5082717;28;20043;-40
2022/10/17 08:13:00;;;;;;;5.85;2.97;;;;;;;20.05;56.65;101911.28;5084825;28;20075;-40
2022/10/17 08:15:27;;;;;;;6.18;2.83;;;;;;;20.04;57.31;101896.97;5086611;28;20100;-40
2022/10/17 08:17:58;;;;;;;5.13;3.03;;;;;;;20.05;56.79;101893.28;5083547;28;20105;-40
2022/10/17 08:20:25;;;;;;;5.45;3.08;;;;;;;20.04;57.30;101890.75;5084690;28;20048;-40
2022/10/17 08:22:52;;;;;;;5.90;3.10;;;;;;;20.03;56.78;101881.81;5086624;28;20052;-40
2022/10/17 08:25:19;;;;;;;6.15;2.72;;;;;;;20.03;56.68;101881.81;5083160;28;20369;-40
2022/10/17 08:27:46;;;;;;;6.20;3.22;;;;;;;20.03;56.60;101872.91;5084973;28;20432;-40
2022/10/17 08:30:12;;;;;;;4.30;2.97;;;;;;;20.04;57.59;101893.44;5080814;28;20063;-40
2022/10/17 08:32:39;;;;;;;4.10;3.00;;;;;;;20.03;56.85;101905.19;5077441;28;20040;-40
2022/10/17 08:35:06;;;;;;;8.35;3.55;;;;;;;20.04;57.24;101913.13;5082618;28;20044;-40
2022/10/17 08:37:32;;;;;;;4.95;2.50;;;;;;;20.03;57.56;101911.44;5083041;28;20071;-40
2022/10/17 08:39:59;;;;;;;4.07;2.65;;;;;;;20.03;57.47;101919.50;5080392;28;20449;-40
2022/10/17 08:42:44;;;;;;;6.53;3.20;;;;;;;20.02;57.09;101915.13;5081832;28;20147;-40
2022/10/17 08:45:28;;;;;;;4.72;2.90;;;;;;;20.04;57.47;101918.50;5084057;28;20048;-40
2022/10/17 08:47:59;;;;;;;;;;;;;;;20.03;57.17;101897.97;5082028;28;20055;-40
2022/10/17 08:51:14;;;;;;;3.47;2.85;;;;;;;20.05;57.54;101870.91;5078686;28;19927;-40
2022/10/17 08:53:52;;;;;;;9.07;3.28;;;;;;;20.05;57.76;101858.28;5065890;28;20139;-40
2022/10/17 08:56:22;;;;;;;4.55;2.78;;;;;;;20.05;57.26;101860.13;5078349;28;20040;-40
2022/10/17 08:59:15;;;;;;;4.78;3.05;;;;;;;20.04;57.77;101862.00;5084667;28;20043;-40
2022/10/17 09:01:46;;;;;;;4.93;2.75;;;;;;;20.04;57.62;101853.91;5078895;28;20043;-40
2022/10/17 09:04:28;;;;;;;3.88;3.13;;;;;;;20.05;57.48;101847.53;5084029;28;20063;-40
2022/10/17 09:07:47;;;;;;;4.15;2.70;;;;;;;20.05;57.40;101860.13;5083085;28;20181;-40
2022/10/17 09:10:39;;;;;;;5.03;2.85;;;;;;;20.06;57.39;101870.78;5034506;28;20066;-40
2022/10/17 09:13:16;;;;;;;3.92;2.60;;;;;;;20.07;57.05;101880.56;5077234;28;20055;-40
2022/10/17 09:16:22;;;;;;;4.85;2.75;;;;;;;20.05;57.44;101909.44;5083871;28;20058;-40
2022/10/17 09:19:09;;;;;;;4.18;2.85;;;;;;;20.06;57.07;101930.00;5081221;28;20461;-40
2022/10/17 09:21:44;;;;;;;3.58;2.70;;;;;;;20.07;57.07;101926.31;5082341;28;20052;-40
2022/10/17 09:24:21;;;;;;;3.55;2.70;;;;;;;20.07;57.54;101928.16;5083671;28;20049;-40
2022/10/17 09:26:49;;;;;;;4.38;2.80;;;;;;;20.08;57.61;101922.63;5079013;28;20097;-40
2022/10/17 09:29:23;;;;;;;4.40;2.88;;;;;;;20.08;57.64;101919.91;5087964;28;20055;-40
2022/10/17 09:32:02;;;;;;;4.00;2.70;;;;;;;20.07;57.09;101904.78;5081398;28;20051;-40
2022/10/17 09:34:31;;;;;;;6.32;3.20;;;;;;;20.07;57.19;101896.69;5085142;28;20048;-40
2022/10/17 09:36:59;;;;;;;4.28;2.50;;;;;;;20.08;57.64;101892.16;5082410;28;20052;-40
2022/10/17 09:39:30;;;;;;;3.08;2.63;;;;;;;20.09;57.09;101893.84;5082555;28;20044;-40
2022/10/17 09:41:59;;;;;;;4.70;2.75;;;;;;;20.08;57.59;101895.69;5078799;28;20044;-40
2022/10/17 09:44:55;;;;;;;4.70;2.88;;;;;;;20.08;57.07;101882.25;5080174;28;20048;-40
2022/10/17 09:47:33;;;;;;;4.28;2.60;;;;;;;20.09;57.01;101888.47;5082114;28;20101;-40
2022/10/17 09:50:01;;;;;;;5.70;3.28;;;;;;;20.10;57.03;101906.31;5081988;28;20052;-40
2022/10/17 09:52:33;;;;;;;5.32;3.00;;;;;;;20.09;56.84;101905.47;5082054;28;20047;-40
2022/10/17 09:55:05;;;;;;;4.73;2.63;;;;;;;20.10;57.59;101917.06;5085804;28;20051;-40
2022/10/17 09:58:05;;;;;;;4.55;2.55;;;;;;;20.08;57.73;101938.75;5086916;28;20048;-40
2022/10/17 10:00:35;;;;;;;3.53;2.35;;;;;;;20.10;57.00;101944.00;5045366;28;20051;-40
2022/10/17 10:03:20;;;;;;;5.72;3.28;;;;;;;20.09;57.04;101963.84;5084588;28;20056;-40
2022/10/17 10:05:58;;;;;;;3.72;2.55;;;;;;;20.09;56.97;101966.53;5082128;28;20044;-40
2022/10/17 10:08:35;;;;;;;4.57;2.90;;;;;;;20.09;57.68;101977.28;5085069;28;20053;-40
2022/10/17 10:11:05;;;;;;;3.25;2.63;;;;;;;20.12;57.35;101990.47;5087685;28;20055;-40
2022/10/17 10:13:34;;;;;;;4.95;2.38;;;;;;;20.09;57.33;101991.59;5082309;28;20079;-40
2022/10/17 10:16:43;;;;;;;5.80;2.92;;;;;;;20.07;57.55;101988.22;5083618;28;20044;-40
2022/10/17 10:19:48;;;;;;;3.05;2.33;;;;;;;20.08;57.27;102003.34;5084785;28;20483;-40
2022/10/17 10:22:17;;;;;;;5.50;3.08;;;;;;;20.09;57.87;102007.75;5075978;28;20382;-40
2022/10/17 10:24:43;;;;;;;5.93;2.58;;;;;;;20.09;57.30;102010.44;5087048;28;20052;-40
2022/10/17 10:27:17;;;;;;;3.70;2.67;;;;;;;20.09;57.69;102014.97;5082988;28;20059;-40
2022/10/17 10:29:51;;;;;;;5.00;2.78;;;;;;;20.08;57.42;102013.28;5086936;28;20049;-40
2022/10/17 10:32:27;;;;;;;3.40;2.53;;;;;;;20.09;57.26;102013.13;5085449;28;20056;-40
2022/10/17 10:35:18;;;;;;;4.38;2.70;;;;;;;20.09;57.92;102023.03;5087642;28;20139;-40
2022/10/17 10:37:49;;;;;;;3.85;2.55;;;;;;;20.09;57.85;102026.59;5087495;28;20381;-40
2022/10/17 10:40:20;;;;;;;4.47;2.70;;;;;;;20.10;57.63;102022.06;5083108;28;20438;-40
2022/10/17 10:42:50;;;;;;;4.57;3.20;;;;;;;20.11;57.78;102024.63;5080521;28;20064;-40
2022/10/17 10:45:22;;;;;;;4.43;2.47;;;;;;;20.12;58.26;102029.00;5084415;28;20071;-40
2022/10/17 10:48:19;;;;;;;3.75;2.38;;;;;;;20.11;57.47;102038.09;5090849;28;20095;-40
2022/10/17 10:50:49;;;;;;;5.10;2.22;;;;;;;20.13;58.29;102048.69;5084654;28;20056;-40
2022/10/17 10:53:33;;;;;;;2.90;2.60;;;;;;;20.13;58.23;102051.38;5087268;28;20055;-40
2022/10/17 10:56:17;;;;;;;3.90;2.80;;;;;;;20.13;57.95;102052.25;5081586;28;20449;-40
2022/10/17 10:59:17;;;;;;;4.28;2.65;;;;;;;20.13;57.77;102046.84;5081419;28;20047;-40
2022/10/17 11:01:56;;;;;;;5.82;2.47;;;;;;;20.13;58.41;102054.94;5055074;28;20044;-40
2022/10/17 11:04:46;;;;;;;2.90;2.35;;;;;;;20.12;57.86;102053.22;5083583;28;20366;-40
2022/10/17 11:07:24;;;;;;;3.45;2.35;;;;;;;20.12;57.76;102047.84;5075153;28;20394;-40
2022/10/17 11:10:01;;;;;;;3.78;2.15;;;;;;;20.11;58.20;102051.53;5081104;28;20063;-40
2022/10/17 11:12:38;;;;;;;4.93;3.00;;;;;;;20.12;58.25;102055.94;5083153;28;20056;-40
2022/10/17 11:15:19;;;;;;;4.25;2.90;;;;;;;20.12;58.24;102060.47;5082317;28;20106;-40
2022/10/17 11:17:56;;;;;;;2.78;2.28;;;;;;;20.11;58.08;102067.69;5081899;28;20048;-40
2022/10/17 11:20:33;;;;;;;4.50;2.45;;;;;;;20.11;58.28;102075.75;5082110;28;20055;-40
2022/10/17 11:23:19;;;;;;;3.20;2.38;;;;;;;20.11;58.06;102083.84;5080926;28;20371;-40
2022/10/17 11:25:55;;;;;;;2.30;1.90;;;;;;;20.10;57.94;102076.75;5082371;28;20048;-40
2022/10/17 11:28:24;;;;;;;3.67;2.42;;;;;;;20.11;58.11;102083.84;5083355;28;20045;-40
2022/10/17 11:30:56;;;;;;;4.30;2.50;;;;;;;20.11;57.67;102091.91;5082086;28;20126;-40
2022/10/17 11:33:50;;;;;;;4.53;2.42;;;;;;;20.09;57.84;102101.94;5083288;28;20052;-40
2022/10/17 11:36:20;;;;;;;2.70;1.80;;;;;;;20.10;58.33;102095.59;5082598;28;20048;-40
2022/10/17 11:39:04;;;;;;;4.70;2.30;;;;;;;20.10;58.19;102098.28;5078877;28;20606;-40
2022/10/17 11:41:38;;;;;;;3.50;2.45;;;;;;;20.10;58.19;102105.50;5082332;28;20048;-40
2022/10/17 11:44:19;;;;;;;3.85;2.03;;;;;;;20.10;57.90;102103.69;5082823;28;20366;-40
2022/10/17 11:46:53;;;;;;;2.78;2.22;;;;;;;20.10;58.02;102111.75;5082884;28;20048;-40
2022/10/17 11:49:27;;;;;;;5.93;2.08;;;;;;;20.10;57.71;102113.56;5083284;28;20052;-40